Terminal Aerodrome Forecast
Issued by NWS

Home | Current Version | Previous Version | Text Only | Print | Product List | Glossary On
Versions: 1 2 3 4 5 6 7 8 9 10 11 12 13 14 15 16 17 18 19 20 21 22 23 24 25 26 27 28 29 30 31 32 33 34 35 36 37 38 39 40 41 42 43 44 45 46 47 48 49 50
000
FTUS45 KPSR 200500
TAFIWA
TAF
KIWA 200523Z 2006/2106 02008KT P6SM SCT070 BKN120
     FM201000 12006KT P6SM FEW080 SCT120
     FM201900 VRB05KT P6SM SCT100 BKN250
      AMD LTD TO CLD VIS AND WIND TIL 201300=

USA.gov is the U.S. government's official web portal to all federal, state and local government web resources and services.